createdAt,value
2018-04-28T00:00:37.637Z,0.00
2018-04-28T00:01:37.788Z,0.00
2018-04-28T00:02:37.942Z,0.00
2018-04-28T00:03:38.088Z,0.00
2018-04-28T00:04:38.241Z,0.00
2018-04-28T00:05:38.387Z,0.00
2018-04-28T00:06:38.536Z,0.00
2018-04-28T00:07:38.684Z,0.00
2018-04-28T00:08:38.834Z,0.00
2018-04-28T00:09:38.985Z,0.00
2018-04-28T00:10:39.132Z,0.00
2018-04-28T00:11:39.283Z,0.00
2018-04-28T00:12:39.433Z,0.00
2018-04-28T00:13:39.583Z,0.00
2018-04-28T00:14:39.733Z,0.00
2018-04-28T00:15:39.881Z,0.00
2018-04-28T00:16:40.030Z,0.00
2018-04-28T00:17:40.181Z,0.00
2018-04-28T00:18:40.337Z,0.00
2018-04-28T00:19:40.484Z,0.00
2018-04-28T00:20:40.630Z,0.00
2018-04-28T00:21:40.782Z,0.00
2018-04-28T00:22:40.928Z,0.00
2018-04-28T00:23:41.072Z,0.00
2018-04-28T00:24:41.222Z,0.00
2018-04-28T00:25:41.371Z,0.00
2018-04-28T00:26:41.519Z,0.00
2018-04-28T00:27:41.667Z,0.00
2018-04-28T00:28:41.817Z,0.00
2018-04-28T00:29:41.965Z,0.00
2018-04-28T00:30:42.116Z,0.00
2018-04-28T00:31:42.265Z,0.00
2018-04-28T00:32:42.415Z,0.00
2018-04-28T00:33:42.567Z,0.00
2018-04-28T00:34:42.735Z,0.00
2018-04-28T00:35:42.882Z,0.00
2018-04-28T00:36:43.034Z,0.00
2018-04-28T00:37:43.185Z,0.00
2018-04-28T00:38:43.330Z,0.00
2018-04-28T00:39:43.483Z,0.00
2018-04-28T00:40:43.637Z,0.00
2018-04-28T00:41:43.782Z,0.00
2018-04-28T00:42:43.934Z,0.00
2018-04-28T00:43:44.084Z,0.00
2018-04-28T00:44:44.231Z,0.00
2018-04-28T00:45:44.380Z,0.00
2018-04-28T00:46:44.529Z,0.00
2018-04-28T00:47:44.676Z,0.00
2018-04-28T00:48:44.827Z,0.00
2018-04-28T00:49:44.974Z,0.00
2018-04-28T00:50:45.125Z,0.00
2018-04-28T00:51:45.273Z,0.00
2018-04-28T00:52:45.423Z,0.00
2018-04-28T00:53:45.573Z,0.00
2018-04-28T00:54:45.722Z,0.00
2018-04-28T00:55:45.873Z,0.00
2018-04-28T00:56:46.022Z,0.00
2018-04-28T00:57:46.175Z,0.00
2018-04-28T00:58:46.318Z,0.00
2018-04-28T00:59:46.468Z,0.00
2018-04-28T01:00:46.617Z,0.00
2018-04-28T01:01:46.765Z,0.00
2018-04-28T01:02:46.918Z,0.00
2018-04-28T01:03:47.073Z,0.00
2018-04-28T01:04:47.214Z,0.00
2018-04-28T01:05:47.362Z,0.00
2018-04-28T01:06:47.514Z,0.00
2018-04-28T01:07:47.664Z,0.00
2018-04-28T01:08:47.819Z,0.00
2018-04-28T01:09:47.969Z,0.00
2018-04-28T01:10:48.114Z,0.00
2018-04-28T01:11:48.264Z,0.00
2018-04-28T01:12:48.411Z,0.00
2018-04-28T01:13:48.568Z,0.00
2018-04-28T01:14:48.713Z,0.00
2018-04-28T01:15:48.860Z,0.00
2018-04-28T01:16:49.011Z,0.00
2018-04-28T01:17:49.177Z,0.00
2018-04-28T01:18:49.308Z,0.00
2018-04-28T01:19:49.458Z,0.00
2018-04-28T01:20:49.606Z,0.00
2018-04-28T01:21:49.755Z,0.00
2018-04-28T01:22:49.905Z,0.00
2018-04-28T01:23:50.056Z,0.00
2018-04-28T01:24:50.204Z,0.00
2018-04-28T01:25:50.354Z,0.00
2018-04-28T01:26:50.504Z,0.00
2018-04-28T01:27:50.649Z,0.00
2018-04-28T01:28:50.800Z,0.00
2018-04-28T01:29:50.949Z,0.00
2018-04-28T01:30:51.096Z,0.00
2018-04-28T01:31:51.247Z,0.00
2018-04-28T01:32:51.394Z,0.00
2018-04-28T01:33:51.542Z,0.00
2018-04-28T01:34:51.689Z,0.00
2018-04-28T01:35:51.840Z,0.00
2018-04-28T01:36:51.986Z,0.00
2018-04-28T01:37:52.140Z,0.00
2018-04-28T01:38:52.285Z,0.00
2018-04-28T01:39:52.434Z,0.00
2018-04-28T01:40:52.583Z,0.00
2018-04-28T01:41:52.731Z,0.00
2018-04-28T01:42:52.880Z,0.00
2018-04-28T01:43:53.029Z,0.00
2018-04-28T01:44:53.177Z,0.00
2018-04-28T01:45:53.325Z,0.00
2018-04-28T01:46:53.476Z,0.00
2018-04-28T01:47:53.658Z,0.00
2018-04-28T01:48:53.775Z,0.00
2018-04-28T01:49:53.921Z,0.00
2018-04-28T01:50:54.074Z,0.00
2018-04-28T01:51:54.224Z,0.00
2018-04-28T01:52:54.373Z,0.00
2018-04-28T01:53:54.519Z,0.00
2018-04-28T01:54:54.669Z,0.00
2018-04-28T01:55:54.815Z,0.00
2018-04-28T01:56:54.964Z,0.00
2018-04-28T01:57:55.115Z,0.00
2018-04-28T01:58:55.261Z,0.00
2018-04-28T01:59:55.414Z,0.00
2018-04-28T02:00:55.561Z,0.00
2018-04-28T02:01:55.704Z,0.00
2018-04-28T02:02:55.857Z,0.00
2018-04-28T02:03:56.004Z,0.00
2018-04-28T02:04:56.151Z,0.00
2018-04-28T02:05:56.299Z,0.00
2018-04-28T02:06:56.448Z,0.00
2018-04-28T02:07:56.599Z,0.00
2018-04-28T02:08:56.746Z,0.00
2018-04-28T02:09:56.896Z,0.00
2018-04-28T02:10:57.044Z,0.00
2018-04-28T02:11:57.193Z,0.00
2018-04-28T02:12:57.340Z,0.00
2018-04-28T02:13:57.491Z,0.00
2018-04-28T02:14:57.671Z,0.00
2018-04-28T02:15:57.812Z,0.00
2018-04-28T02:16:57.960Z,0.00
2018-04-28T02:17:58.109Z,0.00
2018-04-28T02:18:58.258Z,0.00
2018-04-28T02:19:58.404Z,0.00
2018-04-28T02:20:58.555Z,0.00
2018-04-28T02:21:58.704Z,0.00
2018-04-28T02:22:58.852Z,0.00
2018-04-28T02:23:59.000Z,0.00
2018-04-28T02:24:59.147Z,0.00
2018-04-28T02:25:59.295Z,0.00
2018-04-28T02:26:59.445Z,0.00
2018-04-28T02:27:59.594Z,0.00
2018-04-28T02:28:59.743Z,0.00
2018-04-28T02:29:59.892Z,0.00
2018-04-28T02:31:00.040Z,0.00
2018-04-28T02:32:00.188Z,0.00
2018-04-28T02:33:00.342Z,0.00
2018-04-28T02:34:00.488Z,0.00
2018-04-28T02:35:00.637Z,0.00
2018-04-28T02:36:00.785Z,0.00
2018-04-28T02:37:00.938Z,0.00
2018-04-28T02:38:01.089Z,0.00
2018-04-28T02:39:01.237Z,0.00
2018-04-28T02:40:01.384Z,0.00
2018-04-28T02:41:01.532Z,0.00
2018-04-28T02:42:01.685Z,0.00
2018-04-28T02:43:01.831Z,0.00
2018-04-28T02:44:01.980Z,0.00
2018-04-28T02:45:02.131Z,0.00
2018-04-28T02:46:02.279Z,0.00
2018-04-28T02:47:02.429Z,0.00
2018-04-28T02:48:02.578Z,0.00
2018-04-28T02:49:02.724Z,0.00
2018-04-28T02:50:02.938Z,0.00
2018-04-28T02:51:03.022Z,0.00
2018-04-28T02:52:03.173Z,0.00
2018-04-28T02:53:03.326Z,0.00
2018-04-28T02:54:03.469Z,0.00
2018-04-28T02:55:03.619Z,0.00
2018-04-28T02:56:03.774Z,0.00
2018-04-28T02:57:03.916Z,0.00
2018-04-28T02:58:04.067Z,0.00
2018-04-28T02:59:04.213Z,0.00
2018-04-28T03:00:04.363Z,0.00
2018-04-28T03:01:04.513Z,0.00
2018-04-28T03:02:04.665Z,0.00
2018-04-28T03:03:04.843Z,0.00
2018-04-28T03:04:04.959Z,0.00
2018-04-28T03:05:05.108Z,0.00
2018-04-28T03:06:05.255Z,0.00
2018-04-28T03:07:05.404Z,0.00
2018-04-28T03:08:05.550Z,0.00
2018-04-28T03:09:05.700Z,0.00
2018-04-28T03:10:05.850Z,0.00
2018-04-28T03:11:05.999Z,0.00
2018-04-28T03:12:06.147Z,0.00
2018-04-28T03:13:06.293Z,0.00
2018-04-28T03:14:06.444Z,0.00
2018-04-28T03:15:06.593Z,0.00
2018-04-28T03:16:06.748Z,0.00
2018-04-28T03:17:06.889Z,0.00
2018-04-28T03:18:07.040Z,0.00
2018-04-28T03:19:07.190Z,0.00
2018-04-28T03:20:07.337Z,0.00
2018-04-28T03:21:07.488Z,0.00
2018-04-28T03:22:07.635Z,0.00
2018-04-28T03:23:07.788Z,0.00
2018-04-28T03:24:07.932Z,0.00
2018-04-28T03:25:08.082Z,0.00
2018-04-28T03:26:08.231Z,0.00
2018-04-28T03:27:08.381Z,0.00
2018-04-28T03:28:08.530Z,0.00
2018-04-28T03:29:08.677Z,0.00
2018-04-28T03:30:08.825Z,0.00
2018-04-28T03:31:08.979Z,0.00
2018-04-28T03:32:09.126Z,0.00
2018-04-28T03:33:09.275Z,0.00
2018-04-28T03:34:09.424Z,0.00
2018-04-28T03:35:09.575Z,0.00
2018-04-28T03:36:09.723Z,0.00
2018-04-28T03:37:09.870Z,0.00
2018-04-28T03:38:10.026Z,0.00
2018-04-28T03:39:10.172Z,0.00
2018-04-28T03:40:10.322Z,0.00
2018-04-28T03:41:10.470Z,0.00
2018-04-28T03:42:10.618Z,0.00
2018-04-28T03:43:10.773Z,0.00
2018-04-28T03:44:10.913Z,0.00
2018-04-28T03:45:11.062Z,0.00
2018-04-28T03:46:11.212Z,0.00
2018-04-28T03:47:11.362Z,0.00
2018-04-28T03:48:11.508Z,0.00
2018-04-28T03:49:11.657Z,5.63
2018-04-28T03:50:11.806Z,5.63
2018-04-28T03:51:11.956Z,5.63
2018-04-28T03:52:12.105Z,5.63
2018-04-28T03:53:12.253Z,5.63
2018-04-28T03:54:12.404Z,5.63
2018-04-28T03:55:12.553Z,5.63
2018-04-28T03:56:12.728Z,11.25
2018-04-28T03:57:12.875Z,11.25
2018-04-28T03:58:13.023Z,11.25
2018-04-28T03:59:13.173Z,11.25
2018-04-28T04:00:13.320Z,11.25
2018-04-28T04:01:13.470Z,16.88
2018-04-28T04:02:13.617Z,16.88
2018-04-28T04:03:13.764Z,16.88
2018-04-28T04:04:13.910Z,22.50
2018-04-28T04:05:14.060Z,22.50
2018-04-28T04:06:14.206Z,22.50
2018-04-28T04:07:14.357Z,28.13
2018-04-28T04:08:14.504Z,28.13
2018-04-28T04:09:14.653Z,28.13
2018-04-28T04:10:14.802Z,28.13
2018-04-28T04:11:14.953Z,33.75
2018-04-28T04:12:15.102Z,33.75
2018-04-28T04:13:15.249Z,33.75
2018-04-28T04:14:15.398Z,39.38
2018-04-28T04:15:15.546Z,39.38
2018-04-28T04:16:15.691Z,45.00
2018-04-28T04:17:15.849Z,45.00
2018-04-28T04:18:16.032Z,50.63
2018-04-28T04:19:16.140Z,50.63
2018-04-28T04:20:16.286Z,50.63
2018-04-28T04:21:16.436Z,56.25
2018-04-28T04:22:16.582Z,56.25
2018-04-28T04:23:16.731Z,56.25
2018-04-28T04:24:16.883Z,56.25
2018-04-28T04:25:17.032Z,61.88
2018-04-28T04:26:17.178Z,61.88
2018-04-28T04:27:17.326Z,67.50
2018-04-28T04:28:17.477Z,67.50
2018-04-28T04:29:17.625Z,67.50
2018-04-28T04:30:17.774Z,67.50
2018-04-28T04:31:17.920Z,73.13
2018-04-28T04:32:18.071Z,73.13
2018-04-28T04:33:18.221Z,78.75
2018-04-28T04:34:18.367Z,78.75
2018-04-28T04:35:18.520Z,84.38
2018-04-28T04:36:18.667Z,90.00
2018-04-28T04:37:18.816Z,90.00
2018-04-28T04:38:18.967Z,95.63
2018-04-28T04:39:19.116Z,95.63
2018-04-28T04:40:19.264Z,101.25
2018-04-28T04:41:19.414Z,106.88
2018-04-28T04:42:19.563Z,112.50
2018-04-28T04:43:19.710Z,112.50
2018-04-28T04:44:19.862Z,118.13
2018-04-28T04:45:20.012Z,118.13
2018-04-28T04:46:20.162Z,123.75
2018-04-28T04:47:20.306Z,129.38
2018-04-28T04:48:20.456Z,135.00
2018-04-28T04:49:20.606Z,135.00
2018-04-28T04:50:20.757Z,140.63
2018-04-28T04:51:20.905Z,146.25
2018-04-28T04:52:21.057Z,146.25
2018-04-28T04:53:21.206Z,146.25
2018-04-28T04:54:21.355Z,157.50
2018-04-28T04:55:21.505Z,157.50
2018-04-28T04:56:21.654Z,163.13
2018-04-28T04:57:21.804Z,163.13
2018-04-28T04:58:21.953Z,157.50
2018-04-28T04:59:22.104Z,163.13
2018-04-28T05:00:22.253Z,174.38
2018-04-28T05:01:22.400Z,180.00
2018-04-28T05:02:22.551Z,185.63
2018-04-28T05:03:22.703Z,191.25
2018-04-28T05:04:22.906Z,196.88
2018-04-28T05:05:23.001Z,202.50
2018-04-28T05:06:23.148Z,208.13
2018-04-28T05:07:23.296Z,208.13
2018-04-28T05:08:23.444Z,213.75
2018-04-28T05:09:23.595Z,219.38
2018-04-28T05:10:23.744Z,213.75
2018-04-28T05:11:23.897Z,230.63
2018-04-28T05:12:24.046Z,236.25
2018-04-28T05:13:24.197Z,241.88
2018-04-28T05:14:24.347Z,241.88
2018-04-28T05:15:24.496Z,241.88
2018-04-28T05:16:24.655Z,247.50
2018-04-28T05:17:24.790Z,253.13
2018-04-28T05:18:24.940Z,258.75
2018-04-28T05:19:25.109Z,258.75
2018-04-28T05:20:25.239Z,258.75
2018-04-28T05:21:25.388Z,258.75
2018-04-28T05:22:25.538Z,264.38
2018-04-28T05:23:25.690Z,270.00
2018-04-28T05:24:25.837Z,275.63
2018-04-28T05:25:25.991Z,281.25
2018-04-28T05:26:26.139Z,281.25
2018-04-28T05:27:26.290Z,286.88
2018-04-28T05:28:26.444Z,292.50
2018-04-28T05:29:26.593Z,298.13
2018-04-28T05:30:26.739Z,309.38
2018-04-28T05:31:26.888Z,315.00
2018-04-28T05:32:27.041Z,315.00
2018-04-28T05:33:27.190Z,320.63
2018-04-28T05:34:27.343Z,326.25
2018-04-28T05:35:27.491Z,315.00
2018-04-28T05:36:27.642Z,320.63
2018-04-28T05:37:27.795Z,320.63
2018-04-28T05:38:27.945Z,331.88
2018-04-28T05:39:28.100Z,315.00
2018-04-28T05:40:28.244Z,315.00
2018-04-28T05:41:28.394Z,326.25
2018-04-28T05:42:28.547Z,337.50
2018-04-28T05:43:28.700Z,337.50
2018-04-28T05:44:28.845Z,337.50
2018-04-28T05:45:28.995Z,337.50
2018-04-28T05:46:29.147Z,337.50
2018-04-28T05:47:29.296Z,331.88
2018-04-28T05:48:29.448Z,326.25
2018-04-28T05:49:29.597Z,315.00
2018-04-28T05:50:29.748Z,303.75
2018-04-28T05:51:29.900Z,320.63
2018-04-28T05:52:30.050Z,320.63
2018-04-28T05:53:30.201Z,309.38
2018-04-28T05:54:30.354Z,303.75
2018-04-28T05:55:30.532Z,303.75
2018-04-28T05:56:30.654Z,298.13
2018-04-28T05:57:30.804Z,303.75
2018-04-28T05:58:30.956Z,303.75
2018-04-28T05:59:31.113Z,298.13
2018-04-28T06:00:31.261Z,309.38
2018-04-28T06:01:31.408Z,315.00
2018-04-28T06:02:31.563Z,303.75
2018-04-28T06:03:31.725Z,292.50
2018-04-28T06:04:31.867Z,281.25
2018-04-28T06:05:32.017Z,275.63
2018-04-28T06:06:32.168Z,281.25
2018-04-28T06:07:32.319Z,286.88
2018-04-28T06:08:32.469Z,292.50
2018-04-28T06:09:32.620Z,286.88
2018-04-28T06:10:32.771Z,286.88
2018-04-28T06:11:32.924Z,292.50
2018-04-28T06:12:33.077Z,286.88
2018-04-28T06:13:33.227Z,309.38
2018-04-28T06:14:33.379Z,315.00
2018-04-28T06:15:33.531Z,309.38
2018-04-28T06:16:33.685Z,315.00
2018-04-28T06:17:33.840Z,315.00
2018-04-28T06:18:33.988Z,315.00
2018-04-28T06:19:34.138Z,320.63
2018-04-28T06:20:34.290Z,326.25
2018-04-28T06:21:34.443Z,298.13
2018-04-28T06:22:34.594Z,309.38
2018-04-28T06:23:34.746Z,337.50
2018-04-28T06:24:34.900Z,343.13
2018-04-28T06:25:35.055Z,343.13
2018-04-28T06:26:35.204Z,331.88
2018-04-28T06:27:35.358Z,337.50
2018-04-28T06:28:35.510Z,348.75
2018-04-28T06:29:35.663Z,315.00
2018-04-28T06:30:35.814Z,292.50
2018-04-28T06:31:35.966Z,354.38
2018-04-28T06:32:36.117Z,360.00
2018-04-28T06:33:36.268Z,354.38
2018-04-28T06:34:36.423Z,360.00
2018-04-28T06:35:36.576Z,360.00
2018-04-28T06:36:36.725Z,354.38
2018-04-28T06:37:36.880Z,348.75
2018-04-28T06:38:37.032Z,365.63
2018-04-28T06:39:37.186Z,365.63
2018-04-28T06:40:37.337Z,365.63
2018-04-28T06:41:37.492Z,365.63
2018-04-28T06:42:37.642Z,365.63
2018-04-28T06:43:37.795Z,348.75
2018-04-28T06:44:37.945Z,331.88
2018-04-28T06:45:38.097Z,343.13
2018-04-28T06:46:38.252Z,348.75
2018-04-28T06:47:38.403Z,331.88
2018-04-28T06:48:38.554Z,348.75
2018-04-28T06:49:38.711Z,348.75
2018-04-28T06:50:38.861Z,354.38
2018-04-28T06:51:39.013Z,348.75
2018-04-28T06:52:39.164Z,354.38
2018-04-28T06:53:39.317Z,354.38
2018-04-28T06:54:39.468Z,360.00
2018-04-28T06:55:39.626Z,354.38
2018-04-28T06:56:39.773Z,354.38
2018-04-28T06:57:39.927Z,354.38
2018-04-28T06:58:40.083Z,354.38
2018-04-28T06:59:40.231Z,354.38
2018-04-28T07:00:40.389Z,354.38
2018-04-28T07:01:40.540Z,354.38
2018-04-28T07:02:40.697Z,354.38
2018-04-28T07:03:40.843Z,360.00
2018-04-28T07:04:41.004Z,354.38
2018-04-28T07:05:41.150Z,354.38
2018-04-28T07:06:41.302Z,354.38
2018-04-28T07:07:41.454Z,354.38
2018-04-28T07:08:41.609Z,354.38
2018-04-28T07:09:41.762Z,354.38
2018-04-28T07:10:42.002Z,354.38
2018-04-28T07:11:42.063Z,354.38
2018-04-28T07:12:42.217Z,354.38
2018-04-28T07:13:42.370Z,354.38
2018-04-28T07:14:42.524Z,354.38
2018-04-28T07:15:42.678Z,354.38
2018-04-28T07:16:42.820Z,360.00
2018-04-28T07:17:42.986Z,360.00
2018-04-28T07:18:43.139Z,360.00
2018-04-28T07:19:43.292Z,360.00
2018-04-28T07:20:43.447Z,354.38
2018-04-28T07:21:43.607Z,348.75
2018-04-28T07:22:43.755Z,343.13
2018-04-28T07:23:43.909Z,348.75
2018-04-28T07:24:44.061Z,371.25
2018-04-28T07:25:44.216Z,365.63
2018-04-28T07:26:44.369Z,365.63
2018-04-28T07:27:44.524Z,365.63
2018-04-28T07:28:44.676Z,365.63
2018-04-28T07:29:44.829Z,315.00
2018-04-28T07:30:44.983Z,365.63
2018-04-28T07:31:45.137Z,365.63
2018-04-28T07:32:45.290Z,365.63
2018-04-28T07:33:45.447Z,365.63
2018-04-28T07:34:45.597Z,365.63
2018-04-28T07:35:45.753Z,337.50
2018-04-28T07:36:45.904Z,371.25
2018-04-28T07:37:46.061Z,365.63
2018-04-28T07:38:46.212Z,371.25
2018-04-28T07:39:46.365Z,371.25
2018-04-28T07:40:46.522Z,376.88
2018-04-28T07:41:46.674Z,376.88
2018-04-28T07:42:46.830Z,376.88
2018-04-28T07:43:46.983Z,376.88
2018-04-28T07:44:47.137Z,376.88
2018-04-28T07:45:47.291Z,376.88
2018-04-28T07:46:47.447Z,371.25
2018-04-28T07:47:47.607Z,371.25
2018-04-28T07:48:47.754Z,376.88
2018-04-28T07:49:47.908Z,371.25
2018-04-28T07:50:48.062Z,371.25
2018-04-28T07:51:48.214Z,371.25
2018-04-28T07:52:48.367Z,376.88
2018-04-28T07:53:48.521Z,371.25
2018-04-28T07:54:48.675Z,371.25
2018-04-28T07:55:48.829Z,365.63
2018-04-28T07:56:48.995Z,371.25
2018-04-28T07:57:49.136Z,371.25
2018-04-28T07:58:49.289Z,371.25
2018-04-28T07:59:49.444Z,376.88
2018-04-28T08:00:49.598Z,371.25
2018-04-28T08:01:49.753Z,376.88
2018-04-28T08:02:49.905Z,376.88
2018-04-28T08:03:50.060Z,371.25
2018-04-28T08:04:50.212Z,376.88
2018-04-28T08:05:50.367Z,376.88
2018-04-28T08:06:50.522Z,376.88
2018-04-28T08:07:50.674Z,376.88
2018-04-28T08:08:50.826Z,376.88
2018-04-28T08:09:50.982Z,371.25
2018-04-28T08:10:51.137Z,376.88
2018-04-28T08:11:51.290Z,382.50
2018-04-28T08:12:51.446Z,382.50
2018-04-28T08:13:51.595Z,376.88
2018-04-28T08:14:51.750Z,382.50
2018-04-28T08:15:51.907Z,376.88
2018-04-28T08:16:52.061Z,376.88
2018-04-28T08:17:52.215Z,382.50
2018-04-28T08:18:52.365Z,382.50
2018-04-28T08:19:52.522Z,382.50
2018-04-28T08:20:52.676Z,382.50
2018-04-28T08:21:52.833Z,376.88
2018-04-28T08:22:52.986Z,382.50
2018-04-28T08:23:53.138Z,382.50
2018-04-28T08:24:53.295Z,382.50
2018-04-28T08:25:53.448Z,382.50
2018-04-28T08:26:53.602Z,382.50
2018-04-28T08:27:53.756Z,382.50
2018-04-28T08:28:53.910Z,388.13
2018-04-28T08:29:54.065Z,388.13
2018-04-28T08:30:54.218Z,388.13
2018-04-28T08:31:54.377Z,388.13
2018-04-28T08:32:54.527Z,388.13
2018-04-28T08:33:54.682Z,388.13
2018-04-28T08:34:54.837Z,388.13
2018-04-28T08:35:54.991Z,388.13
2018-04-28T08:36:55.217Z,393.75
2018-04-28T08:37:55.295Z,393.75
2018-04-28T08:38:55.451Z,393.75
2018-04-28T08:39:55.606Z,393.75
2018-04-28T08:40:55.757Z,393.75
2018-04-28T08:41:55.914Z,399.38
2018-04-28T08:42:56.069Z,399.38
2018-04-28T08:43:56.223Z,399.38
2018-04-28T08:44:56.381Z,399.38
2018-04-28T08:45:56.536Z,399.38
2018-04-28T08:46:56.691Z,399.38
2018-04-28T08:47:56.844Z,399.38
2018-04-28T08:48:56.999Z,399.38
2018-04-28T08:49:57.155Z,399.38
2018-04-28T08:50:57.314Z,399.38
2018-04-28T08:51:57.468Z,405.00
2018-04-28T08:52:57.622Z,399.38
2018-04-28T08:53:57.775Z,399.38
2018-04-28T08:54:57.930Z,405.00
2018-04-28T08:55:58.087Z,405.00
2018-04-28T08:56:58.241Z,405.00
2018-04-28T08:57:58.398Z,405.00
2018-04-28T08:58:58.551Z,405.00
2018-04-28T08:59:58.746Z,405.00
2018-04-28T09:00:58.866Z,405.00
2018-04-28T09:01:59.043Z,405.00
2018-04-28T09:02:59.177Z,405.00
2018-04-28T09:03:59.331Z,405.00
2018-04-28T09:04:59.487Z,405.00
2018-04-28T09:05:59.641Z,405.00
2018-04-28T09:06:59.799Z,405.00
2018-04-28T09:07:59.951Z,405.00
2018-04-28T09:09:00.106Z,410.63
2018-04-28T09:10:00.265Z,410.63
2018-04-28T09:11:00.421Z,410.63
2018-04-28T09:12:00.576Z,410.63
2018-04-28T09:13:00.805Z,410.63
2018-04-28T09:14:00.884Z,410.63
2018-04-28T09:15:01.038Z,410.63
2018-04-28T09:16:01.192Z,410.63
2018-04-28T09:17:01.346Z,410.63
2018-04-28T09:18:01.500Z,410.63
2018-04-28T09:19:01.657Z,410.63
2018-04-28T09:20:01.814Z,410.63
2018-04-28T09:21:01.968Z,410.63
2018-04-28T09:22:02.118Z,410.63
2018-04-28T09:23:02.274Z,410.63
2018-04-28T09:24:02.430Z,416.25
2018-04-28T09:25:02.587Z,416.25
2018-04-28T09:26:02.820Z,416.25
2018-04-28T09:27:02.899Z,416.25
2018-04-28T09:28:03.053Z,416.25
2018-04-28T09:29:03.208Z,416.25
2018-04-28T09:30:03.369Z,416.25
2018-04-28T09:31:03.517Z,416.25
2018-04-28T09:32:03.675Z,416.25
2018-04-28T09:33:03.844Z,416.25
2018-04-28T09:34:03.985Z,421.88
2018-04-28T09:35:04.140Z,421.88
2018-04-28T09:36:04.298Z,421.88
2018-04-28T09:37:04.451Z,421.88
2018-04-28T09:38:04.608Z,421.88
2018-04-28T09:39:04.762Z,421.88
2018-04-28T09:40:04.950Z,421.88
2018-04-28T09:41:05.069Z,421.88
2018-04-28T09:42:05.225Z,421.88
2018-04-28T09:43:05.382Z,421.88
2018-04-28T09:44:05.537Z,421.88
2018-04-28T09:45:05.694Z,427.50
2018-04-28T09:46:05.854Z,421.88
2018-04-28T09:47:06.010Z,427.50
2018-04-28T09:48:06.164Z,427.50
2018-04-28T09:49:06.318Z,427.50
2018-04-28T09:50:06.501Z,427.50
2018-04-28T09:51:06.657Z,427.50
2018-04-28T09:52:06.811Z,427.50
2018-04-28T09:53:06.967Z,427.50
2018-04-28T09:54:07.120Z,427.50
2018-04-28T09:55:07.277Z,427.50
2018-04-28T09:56:07.429Z,433.13
2018-04-28T09:57:07.585Z,427.50
2018-04-28T09:58:07.743Z,433.13
2018-04-28T09:59:07.897Z,433.13
2018-04-28T10:00:08.050Z,433.13
2018-04-28T10:01:08.208Z,433.13
2018-04-28T10:02:08.364Z,438.75
2018-04-28T10:03:08.521Z,438.75
2018-04-28T10:04:08.675Z,438.75
2018-04-28T10:05:08.830Z,444.38
2018-04-28T10:06:08.988Z,444.38
2018-04-28T10:07:09.144Z,444.38
2018-04-28T10:08:09.298Z,371.25
2018-04-28T10:09:09.454Z,376.88
2018-04-28T10:10:09.607Z,405.00
2018-04-28T10:11:09.763Z,450.00
2018-04-28T10:12:09.929Z,455.63
2018-04-28T10:13:10.086Z,461.25
2018-04-28T10:14:10.242Z,461.25
2018-04-28T10:15:10.399Z,461.25
2018-04-28T10:16:10.557Z,466.88
2018-04-28T10:17:10.708Z,461.25
2018-04-28T10:18:10.867Z,461.25
2018-04-28T10:19:11.027Z,455.63
2018-04-28T10:20:11.278Z,461.25
2018-04-28T10:21:11.335Z,455.63
2018-04-28T10:22:11.491Z,455.63
2018-04-28T10:23:11.646Z,455.63
2018-04-28T10:24:11.802Z,455.63
2018-04-28T10:25:11.955Z,455.63
2018-04-28T10:26:12.114Z,455.63
2018-04-28T10:27:12.270Z,455.63
2018-04-28T10:28:12.427Z,461.25
2018-04-28T10:29:12.582Z,461.25
2018-04-28T10:30:12.737Z,461.25
2018-04-28T10:31:12.884Z,461.25
2018-04-28T10:32:13.048Z,461.25
2018-04-28T10:33:13.202Z,461.25
2018-04-28T10:34:13.359Z,466.88
2018-04-28T10:35:13.514Z,466.88
2018-04-28T10:36:13.672Z,466.88
2018-04-28T10:37:13.827Z,472.50
2018-04-28T10:38:13.984Z,478.13
2018-04-28T10:39:14.139Z,483.75
2018-04-28T10:40:14.297Z,495.00
2018-04-28T10:41:14.455Z,478.13
2018-04-28T10:42:14.610Z,466.88
2018-04-28T10:43:14.767Z,483.75
2018-04-28T10:44:14.922Z,506.25
2018-04-28T10:45:15.081Z,579.38
2018-04-28T10:46:15.237Z,613.13
2018-04-28T10:47:15.396Z,585.00
2018-04-28T10:48:15.552Z,641.25
2018-04-28T10:49:15.707Z,641.25
2018-04-28T10:50:15.864Z,658.13
2018-04-28T10:51:16.026Z,646.88
2018-04-28T10:52:16.180Z,646.88
2018-04-28T10:53:16.334Z,635.63
2018-04-28T10:54:16.493Z,556.88
2018-04-28T10:55:16.650Z,618.75
2018-04-28T10:56:16.807Z,601.88
2018-04-28T10:57:16.963Z,590.63
2018-04-28T10:58:17.121Z,573.75
2018-04-28T10:59:17.279Z,568.13
2018-04-28T11:00:17.436Z,540.00
2018-04-28T11:01:17.593Z,540.00
2018-04-28T11:02:17.750Z,534.38
2018-04-28T11:03:17.908Z,523.13
2018-04-28T11:04:18.067Z,523.13
2018-04-28T11:05:18.225Z,523.13
2018-04-28T11:06:18.460Z,517.50
2018-04-28T11:07:18.539Z,517.50
2018-04-28T11:08:18.694Z,517.50
2018-04-28T11:09:18.853Z,517.50
2018-04-28T11:10:19.011Z,528.75
2018-04-28T11:11:19.180Z,534.38
2018-04-28T11:12:19.337Z,545.63
2018-04-28T11:13:19.524Z,556.88
2018-04-28T11:14:19.661Z,517.50
2018-04-28T11:15:19.817Z,393.75
2018-04-28T11:16:19.976Z,399.38
2018-04-28T11:17:20.137Z,405.00
2018-04-28T11:18:20.296Z,444.38
2018-04-28T11:19:20.452Z,478.13
2018-04-28T11:20:20.612Z,500.63
2018-04-28T11:21:20.764Z,585.00
2018-04-28T11:22:20.922Z,562.50
2018-04-28T11:23:21.095Z,545.63
2018-04-28T11:24:21.254Z,618.75
2018-04-28T11:25:21.411Z,607.50
2018-04-28T11:26:21.577Z,601.88
2018-04-28T11:27:21.734Z,607.50
2018-04-28T11:28:21.896Z,630.00
2018-04-28T11:29:22.051Z,641.25
2018-04-28T11:30:22.209Z,686.25
2018-04-28T11:31:22.371Z,714.38
2018-04-28T11:32:22.532Z,618.75
2018-04-28T11:33:22.690Z,601.88
2018-04-28T11:34:22.842Z,506.25
2018-04-28T11:35:23.008Z,523.13
2018-04-28T11:36:23.170Z,556.88
2018-04-28T11:37:23.324Z,613.13
2018-04-28T11:38:23.551Z,596.25
2018-04-28T11:39:23.651Z,624.38
2018-04-28T11:40:23.808Z,635.63
2018-04-28T11:41:23.971Z,624.38
2018-04-28T11:42:24.132Z,590.63
2018-04-28T11:43:24.293Z,646.88
2018-04-28T11:44:24.450Z,635.63
2018-04-28T11:45:24.605Z,624.38
2018-04-28T11:46:24.766Z,703.13
2018-04-28T11:47:24.925Z,742.50
2018-04-28T11:48:25.110Z,776.25
2018-04-28T11:49:25.245Z,810.00
2018-04-28T11:50:25.402Z,838.13
2018-04-28T11:51:25.560Z,793.13
2018-04-28T11:52:25.719Z,736.88
2018-04-28T11:53:25.876Z,765.00
2018-04-28T11:54:26.036Z,680.63
2018-04-28T11:55:26.194Z,720.00
2018-04-28T11:56:26.351Z,708.75
2018-04-28T11:57:26.506Z,781.88
2018-04-28T11:58:26.661Z,883.13
2018-04-28T11:59:26.822Z,860.63
2018-04-28T12:00:26.980Z,843.75
2018-04-28T12:01:27.137Z,877.50
2018-04-28T12:02:27.298Z,826.88
2018-04-28T12:03:27.455Z,849.38
2018-04-28T12:04:27.614Z,928.13
2018-04-28T12:05:27.772Z,793.13
2018-04-28T12:06:27.930Z,725.63
2018-04-28T12:07:28.086Z,765.00
2018-04-28T12:08:28.246Z,815.63
2018-04-28T12:09:28.405Z,742.50
2018-04-28T12:10:28.564Z,641.25
2018-04-28T12:11:28.724Z,568.13
2018-04-28T12:12:28.905Z,517.50
2018-04-28T12:13:29.040Z,641.25
2018-04-28T12:14:29.201Z,528.75
2018-04-28T12:15:29.359Z,461.25
2018-04-28T12:16:29.518Z,472.50
2018-04-28T12:17:29.677Z,646.88
2018-04-28T12:18:29.836Z,697.50
2018-04-28T12:19:29.995Z,691.88
2018-04-28T12:20:30.154Z,686.25
2018-04-28T12:21:30.315Z,680.63
2018-04-28T12:22:30.474Z,624.38
2018-04-28T12:23:30.632Z,540.00
2018-04-28T12:24:30.791Z,528.75
2018-04-28T12:25:30.949Z,534.38
2018-04-28T12:26:31.111Z,551.25
2018-04-28T12:27:31.271Z,556.88
2018-04-28T12:28:31.428Z,613.13
2018-04-28T12:29:31.584Z,714.38
2018-04-28T12:30:31.744Z,714.38
2018-04-28T12:31:31.901Z,731.25
2018-04-28T12:32:32.057Z,798.75
2018-04-28T12:33:32.217Z,787.50
2018-04-28T12:34:32.405Z,748.13
2018-04-28T12:35:32.528Z,697.50
2018-04-28T12:36:32.689Z,652.50
2018-04-28T12:37:32.845Z,517.50
2018-04-28T12:38:33.004Z,461.25
2018-04-28T12:39:33.165Z,438.75
2018-04-28T12:40:33.322Z,495.00
2018-04-28T12:41:33.479Z,534.38
2018-04-28T12:42:33.638Z,579.38
2018-04-28T12:43:33.799Z,613.13
2018-04-28T12:44:33.958Z,624.38
2018-04-28T12:45:34.118Z,573.75
2018-04-28T12:46:34.277Z,607.50